sensor_id;sensor_type;location;lat;lon;timestamp;pressure;altitude;pressure_sealevel;temperature;humidity
71666;BME280;59503;53.486;10.196;2022-07-06T00:01:18;102185.59;;;14.18;74.77
71666;BME280;59503;53.486;10.196;2022-07-06T00:03:43;102185.66;;;14.06;75.96
71666;BME280;59503;53.486;10.196;2022-07-06T00:06:09;102175.84;;;14.05;75.49
71666;BME280;59503;53.486;10.196;2022-07-06T00:08:34;102180.97;;;14.06;75.74
71666;BME280;59503;53.486;10.196;2022-07-06T00:11:00;102182.81;;;14.02;76.03
71666;BME280;59503;53.486;10.196;2022-07-06T00:13:26;102184.31;;;14.00;76.11
71666;BME280;59503;53.486;10.196;2022-07-06T00:15:52;102182.53;;;13.92;77.34
71666;BME280;59503;53.486;10.196;2022-07-06T00:18:17;102188.38;;;14.06;76.42
71666;BME280;59503;53.486;10.196;2022-07-06T00:20:43;102190.63;;;14.16;75.68
71666;BME280;59503;53.486;10.196;2022-07-06T00:23:09;102192.44;;;14.12;76.21
71666;BME280;59503;53.486;10.196;2022-07-06T00:25:34;102189.56;;;14.20;75.49
71666;BME280;59503;53.486;10.196;2022-07-06T00:28:00;102190.13;;;14.26;75.68
71666;BME280;59503;53.486;10.196;2022-07-06T00:30:25;102196.53;;;14.18;76.02
71666;BME280;59503;53.486;10.196;2022-07-06T00:32:51;102179.31;;;14.17;75.97
71666;BME280;59503;53.486;10.196;2022-07-06T00:35:16;102196.06;;;14.28;75.38
71666;BME280;59503;53.486;10.196;2022-07-06T00:37:41;102186.47;;;14.22;75.74
71666;BME280;59503;53.486;10.196;2022-07-06T00:40:07;102182.06;;;14.17;76.51
71666;BME280;59503;53.486;10.196;2022-07-06T00:42:45;102188.84;;;14.23;75.92
71666;BME280;59503;53.486;10.196;2022-07-06T00:45:12;102193.97;;;14.25;76.24
71666;BME280;59503;53.486;10.196;2022-07-06T00:47:39;102187.06;;;14.15;75.89
71666;BME280;59503;53.486;10.196;2022-07-06T00:50:05;102185.25;;;14.19;76.17
71666;BME280;59503;53.486;10.196;2022-07-06T00:52:47;102181.41;;;14.08;76.75
71666;BME280;59503;53.486;10.196;2022-07-06T00:55:15;102194.72;;;14.10;76.96
71666;BME280;59503;53.486;10.196;2022-07-06T00:57:41;102187.03;;;14.00;77.24
71666;BME280;59503;53.486;10.196;2022-07-06T01:00:09;102181.22;;;14.01;76.76
71666;BME280;59503;53.486;10.196;2022-07-06T01:02:36;102193.16;;;14.09;76.37
71666;BME280;59503;53.486;10.196;2022-07-06T01:05:04;102181.31;;;14.05;76.41
71666;BME280;59503;53.486;10.196;2022-07-06T01:07:31;102188.91;;;13.96;76.96
71666;BME280;59503;53.486;10.196;2022-07-06T01:09:57;102190.69;;;14.04;76.70
71666;BME280;59503;53.486;10.196;2022-07-06T01:12:23;102191.91;;;14.06;76.58
71666;BME280;59503;53.486;10.196;2022-07-06T01:14:49;102193.16;;;14.09;75.82
71666;BME280;59503;53.486;10.196;2022-07-06T01:17:15;102187.50;;;14.02;76.35
71666;BME280;59503;53.486;10.196;2022-07-06T01:19:42;102191.72;;;13.99;76.50
71666;BME280;59503;53.486;10.196;2022-07-06T01:22:08;102186.63;;;13.98;76.30
71666;BME280;59503;53.486;10.196;2022-07-06T01:24:37;102186.00;;;14.04;76.38
71666;BME280;59503;53.486;10.196;2022-07-06T01:27:04;102176.44;;;13.98;76.49
71666;BME280;59503;53.486;10.196;2022-07-06T01:29:31;102180.00;;;13.99;76.70
71666;BME280;59503;53.486;10.196;2022-07-06T01:31:57;102187.03;;;14.00;76.50
71666;BME280;59503;53.486;10.196;2022-07-06T01:34:23;102177.50;;;13.94;76.64
71666;BME280;59503;53.486;10.196;2022-07-06T01:36:49;102181.81;;;13.95;77.01
71666;BME280;59503;53.486;10.196;2022-07-06T01:39:14;102178.41;;;13.98;76.91
71666;BME280;59503;53.486;10.196;2022-07-06T01:41:40;102169.75;;;14.11;75.77
71666;BME280;59503;53.486;10.196;2022-07-06T01:44:06;102165.00;;;14.08;76.51
71666;BME280;59503;53.486;10.196;2022-07-06T01:46:32;102178.31;;;14.10;76.27
71666;BME280;59503;53.486;10.196;2022-07-06T01:48:58;102164.66;;;14.10;76.07
71666;BME280;59503;53.486;10.196;2022-07-06T01:51:23;102170.97;;;14.26;75.50
71666;BME280;59503;53.486;10.196;2022-07-06T01:53:50;102183.38;;;14.23;76.12
71666;BME280;59503;53.486;10.196;2022-07-06T01:56:15;102170.06;;;14.22;75.62
71666;BME280;59503;53.486;10.196;2022-07-06T01:58:42;102166.81;;;14.16;75.93
71666;BME280;59503;53.486;10.196;2022-07-06T02:01:12;102181.16;;;14.13;76.25
71666;BME280;59503;53.486;10.196;2022-07-06T02:03:38;102173.41;;;14.15;76.47
71666;BME280;59503;53.486;10.196;2022-07-06T02:06:05;102166.63;;;14.09;76.54
71666;BME280;59503;53.486;10.196;2022-07-06T02:08:34;102176.50;;;14.14;76.21
71666;BME280;59503;53.486;10.196;2022-07-06T02:11:04;102178.06;;;14.15;76.55
71666;BME280;59503;53.486;10.196;2022-07-06T02:13:30;102181.88;;;14.10;76.69
71666;BME280;59503;53.486;10.196;2022-07-06T02:15:55;102178.78;;;14.12;76.69
71666;BME280;59503;53.486;10.196;2022-07-06T02:18:21;102176.41;;;14.10;76.54
71666;BME280;59503;53.486;10.196;2022-07-06T02:20:47;102187.88;;;14.16;76.46
71666;BME280;59503;53.486;10.196;2022-07-06T02:23:12;102177.72;;;14.01;76.79
71666;BME280;59503;53.486;10.196;2022-07-06T02:25:38;102173.56;;;14.07;76.67
71666;BME280;59503;53.486;10.196;2022-07-06T02:28:04;102182.03;;;14.02;77.19
71666;BME280;59503;53.486;10.196;2022-07-06T02:30:29;102174.16;;;14.00;77.68
71666;BME280;59503;53.486;10.196;2022-07-06T02:32:55;102181.16;;;13.98;77.86
71666;BME280;59503;53.486;10.196;2022-07-06T02:35:21;102186.78;;;14.05;77.46
71666;BME280;59503;53.486;10.196;2022-07-06T02:37:46;102180.09;;;14.02;77.85
71666;BME280;59503;53.486;10.196;2022-07-06T02:40:12;102183.88;;;13.98;78.35
71666;BME280;59503;53.486;10.196;2022-07-06T02:42:38;102176.34;;;13.95;77.95
71666;BME280;59503;53.486;10.196;2022-07-06T02:45:04;102181.16;;;13.98;78.99
71666;BME280;59503;53.486;10.196;2022-07-06T02:47:30;102184.13;;;13.93;78.74
71666;BME280;59503;53.486;10.196;2022-07-06T02:49:55;102179.19;;;13.98;78.03
71666;BME280;59503;53.486;10.196;2022-07-06T02:52:21;102175.22;;;13.96;78.14
71666;BME280;59503;53.486;10.196;2022-07-06T02:54:46;102174.06;;;13.97;78.17
71666;BME280;59503;53.486;10.196;2022-07-06T02:57:14;102176.91;;;14.00;77.53
71666;BME280;59503;53.486;10.196;2022-07-06T02:59:40;102182.97;;;13.94;78.06
71666;BME280;59503;53.486;10.196;2022-07-06T03:02:07;102177.06;;;13.92;78.58
71666;BME280;59503;53.486;10.196;2022-07-06T03:04:33;102177.06;;;13.92;78.26
71666;BME280;59503;53.486;10.196;2022-07-06T03:06:59;102180.94;;;13.91;78.78
71666;BME280;59503;53.486;10.196;2022-07-06T03:09:25;102178.66;;;13.93;79.21
71666;BME280;59503;53.486;10.196;2022-07-06T03:11:50;102180.50;;;13.89;79.83
71666;BME280;59503;53.486;10.196;2022-07-06T03:14:16;102179.41;;;13.78;79.69
71666;BME280;59503;53.486;10.196;2022-07-06T03:16:42;102192.47;;;13.84;80.37
71666;BME280;59503;53.486;10.196;2022-07-06T03:19:08;102191.22;;;13.82;80.72
71666;BME280;59503;53.486;10.196;2022-07-06T03:21:33;102194.97;;;13.89;80.03
71666;BME280;59503;53.486;10.196;2022-07-06T03:23:59;102197.50;;;13.82;79.79
71666;BME280;59503;53.486;10.196;2022-07-06T03:26:24;102188.28;;;13.74;80.91
71666;BME280;59503;53.486;10.196;2022-07-06T03:28:50;102191.38;;;13.73;81.03
71666;BME280;59503;53.486;10.196;2022-07-06T03:31:16;102193.09;;;13.78;80.89
71666;BME280;59503;53.486;10.196;2022-07-06T03:33:41;102191.59;;;13.80;80.61
71666;BME280;59503;53.486;10.196;2022-07-06T03:36:07;102187.88;;;13.88;79.84
71666;BME280;59503;53.486;10.196;2022-07-06T03:38:33;102191.78;;;13.87;80.29
71666;BME280;59503;53.486;10.196;2022-07-06T03:40:59;102200.53;;;13.93;79.92
71666;BME280;59503;53.486;10.196;2022-07-06T03:43:24;102188.25;;;13.87;80.75
71666;BME280;59503;53.486;10.196;2022-07-06T03:45:50;102189.59;;;13.93;80.51
71666;BME280;59503;53.486;10.196;2022-07-06T03:48:16;102190.63;;;13.88;81.10
71666;BME280;59503;53.486;10.196;2022-07-06T03:50:41;102195.31;;;13.88;80.55
71666;BME280;59503;53.486;10.196;2022-07-06T03:53:07;102196.44;;;13.87;80.68
71666;BME280;59503;53.486;10.196;2022-07-06T03:55:32;102182.72;;;13.99;79.70
71666;BME280;59503;53.486;10.196;2022-07-06T03:57:58;102197.19;;;13.99;79.75
71666;BME280;59503;53.486;10.196;2022-07-06T04:00:23;102184.66;;;13.98;80.67
71666;BME280;59503;53.486;10.196;2022-07-06T04:02:49;102193.41;;;14.04;80.19
71666;BME280;59503;53.486;10.196;2022-07-06T04:05:14;102177.91;;;14.08;78.20
71666;BME280;59503;53.486;10.196;2022-07-06T04:07:40;102185.66;;;14.06;78.33
71666;BME280;59503;53.486;10.196;2022-07-06T04:10:06;102187.69;;;14.09;78.82
71666;BME280;59503;53.486;10.196;2022-07-06T04:12:39;102193.53;;;14.23;77.92
71666;BME280;59503;53.486;10.196;2022-07-06T04:15:05;102193.00;;;14.17;78.22
71666;BME280;59503;53.486;10.196;2022-07-06T04:17:31;102192.88;;;14.26;77.31
71666;BME280;59503;53.486;10.196;2022-07-06T04:20:15;102191.00;;;14.30;76.56
71666;BME280;59503;53.486;10.196;2022-07-06T04:22:41;102197.63;;;14.29;75.97
71666;BME280;59503;53.486;10.196;2022-07-06T04:25:06;102202.28;;;14.28;75.99
71666;BME280;59503;53.486;10.196;2022-07-06T04:27:33;102207.16;;;14.35;75.71
71666;BME280;59503;53.486;10.196;2022-07-06T04:29:58;102198.94;;;14.35;75.49
71666;BME280;59503;53.486;10.196;2022-07-06T04:32:24;102196.53;;;14.18;75.66
71666;BME280;59503;53.486;10.196;2022-07-06T04:34:49;102194.72;;;14.10;76.76
71666;BME280;59503;53.486;10.196;2022-07-06T04:37:17;102201.63;;;14.04;77.11
71666;BME280;59503;53.486;10.196;2022-07-06T04:39:42;102197.03;;;14.08;76.87
71666;BME280;59503;53.486;10.196;2022-07-06T04:42:08;102190.69;;;14.04;77.01
71666;BME280;59503;53.486;10.196;2022-07-06T04:44:33;102192.91;;;14.14;76.12
71666;BME280;59503;53.486;10.196;2022-07-06T04:46:59;102198.00;;;14.15;76.20
71666;BME280;59503;53.486;10.196;2022-07-06T04:49:25;102198.81;;;14.16;76.10
71666;BME280;59503;53.486;10.196;2022-07-06T04:51:50;102191.22;;;14.25;76.24
71666;BME280;59503;53.486;10.196;2022-07-06T04:54:16;102180.25;;;14.37;76.34
71666;BME280;59503;53.486;10.196;2022-07-06T04:56:41;102186.09;;;14.66;75.33
71666;BME280;59503;53.486;10.196;2022-07-06T04:59:07;102195.00;;;14.79;75.18
71666;BME280;59503;53.486;10.196;2022-07-06T05:01:33;102190.94;;;14.73;75.30
71666;BME280;59503;53.486;10.196;2022-07-06T05:03:59;102190.94;;;14.73;75.78
71666;BME280;59503;53.486;10.196;2022-07-06T05:06:25;102190.22;;;14.60;76.11
71666;BME280;59503;53.486;10.196;2022-07-06T05:08:50;102198.88;;;14.78;75.81
71666;BME280;59503;53.486;10.196;2022-07-06T05:11:16;102202.06;;;14.80;76.22
71666;BME280;59503;53.486;10.196;2022-07-06T05:13:41;102205.41;;;14.89;75.80
71666;BME280;59503;53.486;10.196;2022-07-06T05:16:07;102202.66;;;14.89;76.26
71666;BME280;59503;53.486;10.196;2022-07-06T05:18:33;102213.69;;;15.08;74.79
71666;BME280;59503;53.486;10.196;2022-07-06T05:20:58;102205.31;;;15.01;74.18
71666;BME280;59503;53.486;10.196;2022-07-06T05:23:24;102206.47;;;15.00;74.26
71666;BME280;59503;53.486;10.196;2022-07-06T05:25:49;102209.78;;;15.09;73.52
71666;BME280;59503;53.486;10.196;2022-07-06T05:28:15;102215.25;;;15.09;74.17
71666;BME280;59503;53.486;10.196;2022-07-06T05:30:40;102210.41;;;15.03;74.18
71666;BME280;59503;53.486;10.196;2022-07-06T05:33:06;102201.75;;;15.01;73.90
71666;BME280;59503;53.486;10.196;2022-07-06T05:35:31;102198.66;;;15.02;74.65
71666;BME280;59503;53.486;10.196;2022-07-06T05:37:57;102214.53;;;15.12;74.03
71666;BME280;59503;53.486;10.196;2022-07-06T05:40:22;102210.41;;;15.18;74.80
71666;BME280;59503;53.486;10.196;2022-07-06T05:42:48;102210.13;;;15.23;73.97
71666;BME280;59503;53.486;10.196;2022-07-06T05:45:13;102213.38;;;15.29;73.65
71666;BME280;59503;53.486;10.196;2022-07-06T05:47:39;102218.22;;;15.35;73.50
71666;BME280;59503;53.486;10.196;2022-07-06T05:50:23;102216.25;;;15.51;73.19
71666;BME280;59503;53.486;10.196;2022-07-06T05:52:57;102219.00;;;15.70;73.53
71666;BME280;59503;53.486;10.196;2022-07-06T05:55:23;102215.09;;;15.71;72.50
71666;BME280;59503;53.486;10.196;2022-07-06T05:57:48;102211.28;;;15.76;71.54
71666;BME280;59503;53.486;10.196;2022-07-06T06:00:15;102212.72;;;15.89;71.67
71666;BME280;59503;53.486;10.196;2022-07-06T06:02:42;102219.00;;;16.08;70.16
71666;BME280;59503;53.486;10.196;2022-07-06T06:05:09;102208.09;;;16.12;70.98
71666;BME280;59503;53.486;10.196;2022-07-06T06:07:36;102213.94;;;16.10;69.73
71666;BME280;59503;53.486;10.196;2022-07-06T06:10:03;102216.94;;;16.25;68.71
71666;BME280;59503;53.486;10.196;2022-07-06T06:12:29;102219.25;;;16.23;68.99
71666;BME280;59503;53.486;10.196;2022-07-06T06:14:55;102218.41;;;16.18;70.56
71666;BME280;59503;53.486;10.196;2022-07-06T06:17:20;102223.88;;;16.18;69.72
71666;BME280;59503;53.486;10.196;2022-07-06T06:19:46;102212.44;;;16.36;67.80
71666;BME280;59503;53.486;10.196;2022-07-06T06:22:11;102212.50;;;16.39;68.71
71666;BME280;59503;53.486;10.196;2022-07-06T06:24:37;102223.13;;;16.41;68.24
71666;BME280;59503;53.486;10.196;2022-07-06T06:27:02;102224.75;;;16.45;67.65
71666;BME280;59503;53.486;10.196;2022-07-06T06:29:28;102227.81;;;16.40;67.40
71666;BME280;59503;53.486;10.196;2022-07-06T06:31:54;102231.81;;;16.24;68.48
71666;BME280;59503;53.486;10.196;2022-07-06T06:34:19;102238.31;;;16.35;67.47
71666;BME280;59503;53.486;10.196;2022-07-06T06:36:45;102223.31;;;16.09;67.85
71666;BME280;59503;53.486;10.196;2022-07-06T06:39:10;102222.03;;;16.03;69.25
71666;BME280;59503;53.486;10.196;2022-07-06T06:41:36;102231.31;;;16.18;68.86
71666;BME280;59503;53.486;10.196;2022-07-06T06:44:01;102228.38;;;16.07;68.72
71666;BME280;59503;53.486;10.196;2022-07-06T06:46:27;102240.53;;;15.87;71.41
71666;BME280;59503;53.486;10.196;2022-07-06T06:48:52;102248.31;;;15.85;72.25
71666;BME280;59503;53.486;10.196;2022-07-06T06:51:18;102234.81;;;15.77;73.17
71666;BME280;59503;53.486;10.196;2022-07-06T06:53:43;102234.72;;;15.73;73.36
71666;BME280;59503;53.486;10.196;2022-07-06T06:56:09;102239.63;;;15.64;75.78
71666;BME280;59503;53.486;10.196;2022-07-06T06:58:34;102237.03;;;15.71;75.11
71666;BME280;59503;53.486;10.196;2022-07-06T07:01:00;102231.25;;;15.76;73.99
71666;BME280;59503;53.486;10.196;2022-07-06T07:03:25;102241.06;;;15.96;73.95
71666;BME280;59503;53.486;10.196;2022-07-06T07:05:51;102243.09;;;16.18;73.13
71666;BME280;59503;53.486;10.196;2022-07-06T07:08:17;102239.69;;;16.25;71.69
71666;BME280;59503;53.486;10.196;2022-07-06T07:10:42;102249.94;;;16.47;72.11
71666;BME280;59503;53.486;10.196;2022-07-06T07:13:08;102246.44;;;16.50;68.39
71666;BME280;59503;53.486;10.196;2022-07-06T07:15:34;102247.91;;;16.67;67.43
71666;BME280;59503;53.486;10.196;2022-07-06T07:17:59;102235.94;;;17.01;67.98
71666;BME280;59503;53.486;10.196;2022-07-06T07:20:25;102247.44;;;17.36;66.91
71666;BME280;59503;53.486;10.196;2022-07-06T07:22:50;102249.06;;;17.37;66.96
71666;BME280;59503;53.486;10.196;2022-07-06T07:25:16;102258.41;;;17.32;64.71
71666;BME280;59503;53.486;10.196;2022-07-06T07:27:41;102248.19;;;17.33;66.22
71666;BME280;59503;53.486;10.196;2022-07-06T07:30:07;102245.13;;;17.64;64.38
71666;BME280;59503;53.486;10.196;2022-07-06T07:32:33;102265.00;;;17.80;63.86
71666;BME280;59503;53.486;10.196;2022-07-06T07:34:59;102256.22;;;17.71;64.35
71666;BME280;59503;53.486;10.196;2022-07-06T07:37:24;102263.28;;;17.69;64.29
71666;BME280;59503;53.486;10.196;2022-07-06T07:39:50;102240.88;;;17.44;65.02
71666;BME280;59503;53.486;10.196;2022-07-06T07:42:15;102263.63;;;17.41;64.55
71666;BME280;59503;53.486;10.196;2022-07-06T07:44:41;102257.78;;;17.16;64.49
71666;BME280;59503;53.486;10.196;2022-07-06T07:47:06;102252.22;;;17.13;64.59
71666;BME280;59503;53.486;10.196;2022-07-06T07:49:32;102263.84;;;17.03;67.03
71666;BME280;59503;53.486;10.196;2022-07-06T07:51:58;102260.41;;;17.09;65.47
71666;BME280;59503;53.486;10.196;2022-07-06T07:54:23;102263.41;;;17.01;67.96
71666;BME280;59503;53.486;10.196;2022-07-06T07:56:48;102263.78;;;16.99;67.66
71666;BME280;59503;53.486;10.196;2022-07-06T07:59:14;102261.72;;;16.70;67.34
71666;BME280;59503;53.486;10.196;2022-07-06T08:01:40;102270.47;;;16.57;68.04
71666;BME280;59503;53.486;10.196;2022-07-06T08:04:05;102275.50;;;16.51;68.29
71666;BME280;59503;53.486;10.196;2022-07-06T08:06:31;102271.97;;;16.12;70.52
71666;BME280;59503;53.486;10.196;2022-07-06T08:08:57;102271.19;;;15.93;73.27
71666;BME280;59503;53.486;10.196;2022-07-06T08:11:22;102276.28;;;15.94;74.68
71666;BME280;59503;53.486;10.196;2022-07-06T08:13:48;102282.91;;;15.74;74.61
71666;BME280;59503;53.486;10.196;2022-07-06T08:16:13;102275.13;;;15.57;75.56
71666;BME280;59503;53.486;10.196;2022-07-06T08:18:39;102287.09;;;15.68;77.42
71666;BME280;59503;53.486;10.196;2022-07-06T08:21:05;102276.31;;;15.75;76.88
71666;BME280;59503;53.486;10.196;2022-07-06T08:23:30;102281.38;;;15.92;77.15
71666;BME280;59503;53.486;10.196;2022-07-06T08:25:56;102274.44;;;15.98;75.18
71666;BME280;59503;53.486;10.196;2022-07-06T08:28:22;102288.72;;;16.27;73.83
71666;BME280;59503;53.486;10.196;2022-07-06T08:30:47;102278.19;;;15.90;71.93
71666;BME280;59503;53.486;10.196;2022-07-06T08:33:13;102278.13;;;16.06;73.35
71666;BME280;59503;53.486;10.196;2022-07-06T08:35:39;102274.91;;;16.23;70.87
71666;BME280;59503;53.486;10.196;2022-07-06T08:38:05;102278.75;;;16.18;71.64
71666;BME280;59503;53.486;10.196;2022-07-06T08:40:33;102277.88;;;16.14;70.26
71666;BME280;59503;53.486;10.196;2022-07-06T08:43:00;102284.81;;;16.08;70.96
71666;BME280;59503;53.486;10.196;2022-07-06T08:45:26;102275.59;;;15.97;72.34
71666;BME280;59503;53.486;10.196;2022-07-06T08:47:54;102276.47;;;15.82;72.66
71666;BME280;59503;53.486;10.196;2022-07-06T08:50:20;102276.75;;;15.77;75.14
71666;BME280;59503;53.486;10.196;2022-07-06T08:52:48;102288.59;;;15.66;76.53
71666;BME280;59503;53.486;10.196;2022-07-06T08:55:15;102291.84;;;15.52;77.31
71666;BME280;59503;53.486;10.196;2022-07-06T08:57:41;102287.13;;;15.37;80.13
71666;BME280;59503;53.486;10.196;2022-07-06T09:00:08;102301.41;;;15.12;80.26
71666;BME280;59503;53.486;10.196;2022-07-06T09:02:34;102302.56;;;14.95;80.98
71666;BME280;59503;53.486;10.196;2022-07-06T09:05:02;102287.19;;;14.75;82.41
71666;BME280;59503;53.486;10.196;2022-07-06T09:07:29;102297.88;;;14.64;81.88
71666;BME280;59503;53.486;10.196;2022-07-06T09:09:55;102292.66;;;14.59;83.99
71666;BME280;59503;53.486;10.196;2022-07-06T09:12:26;102286.63;;;14.54;84.31
71666;BME280;59503;53.486;10.196;2022-07-06T09:14:54;102295.16;;;14.80;82.81
71666;BME280;59503;53.486;10.196;2022-07-06T09:17:20;102295.59;;;14.98;85.47
71666;BME280;59503;53.486;10.196;2022-07-06T09:19:46;102283.72;;;15.25;85.13
71666;BME280;59503;53.486;10.196;2022-07-06T09:22:25;102298.72;;;15.62;84.72
71666;BME280;59503;53.486;10.196;2022-07-06T09:24:51;102312.84;;;15.98;81.59
71666;BME280;59503;53.486;10.196;2022-07-06T09:27:16;102312.69;;;16.10;78.22
71666;BME280;59503;53.486;10.196;2022-07-06T09:29:42;102313.25;;;16.19;79.23
71666;BME280;59503;53.486;10.196;2022-07-06T09:32:08;102312.81;;;16.37;75.99
71666;BME280;59503;53.486;10.196;2022-07-06T09:34:45;102322.25;;;16.55;78.39
71666;BME280;59503;53.486;10.196;2022-07-06T09:37:12;102322.25;;;16.77;77.03
71666;BME280;59503;53.486;10.196;2022-07-06T09:39:38;102320.44;;;16.85;75.73
71666;BME280;59503;53.486;10.196;2022-07-06T09:42:07;102323.25;;;16.88;73.45
71666;BME280;59503;53.486;10.196;2022-07-06T09:44:40;102315.06;;;16.92;71.67
71666;BME280;59503;53.486;10.196;2022-07-06T09:47:09;102299.88;;;16.98;70.91
71666;BME280;59503;53.486;10.196;2022-07-06T09:49:35;102313.16;;;16.96;71.86
71666;BME280;59503;53.486;10.196;2022-07-06T09:52:04;102305.84;;;16.81;72.84
71666;BME280;59503;53.486;10.196;2022-07-06T09:54:30;102316.50;;;16.63;73.02
71666;BME280;59503;53.486;10.196;2022-07-06T09:56:56;102298.25;;;16.52;73.61
71666;BME280;59503;53.486;10.196;2022-07-06T09:59:27;102313.66;;;16.79;72.94
71666;BME280;59503;53.486;10.196;2022-07-06T10:01:54;102316.69;;;16.74;73.76
71666;BME280;59503;53.486;10.196;2022-07-06T10:04:22;102308.34;;;16.89;70.43
71666;BME280;59503;53.486;10.196;2022-07-06T10:06:48;102310.84;;;16.98;70.84
71666;BME280;59503;53.486;10.196;2022-07-06T10:09:14;102311.94;;;17.16;71.35
71666;BME280;59503;53.486;10.196;2022-07-06T10:11:43;102309.81;;;17.55;70.48
71666;BME280;59503;53.486;10.196;2022-07-06T10:14:10;102297.47;;;17.71;69.21
71666;BME280;59503;53.486;10.196;2022-07-06T10:16:38;102303.06;;;17.78;67.85
71666;BME280;59503;53.486;10.196;2022-07-06T10:19:06;102304.09;;;17.96;66.62
71666;BME280;59503;53.486;10.196;2022-07-06T10:21:34;102302.47;;;17.92;65.48
71666;BME280;59503;53.486;10.196;2022-07-06T10:24:01;102297.88;;;17.99;66.25
71666;BME280;59503;53.486;10.196;2022-07-06T10:26:27;102302.72;;;18.09;68.68
71666;BME280;59503;53.486;10.196;2022-07-06T10:28:52;102297.03;;;18.28;65.89
71666;BME280;59503;53.486;10.196;2022-07-06T10:31:19;102303.16;;;18.15;64.24
71666;BME280;59503;53.486;10.196;2022-07-06T10:33:45;102299.03;;;18.65;65.28
71666;BME280;59503;53.486;10.196;2022-07-06T10:36:12;102297.81;;;19.06;63.54
71666;BME280;59503;53.486;10.196;2022-07-06T10:38:38;102286.13;;;19.77;59.05
71666;BME280;59503;53.486;10.196;2022-07-06T10:41:06;102297.47;;;20.54;57.59
71666;BME280;59503;53.486;10.196;2022-07-06T10:45:58;102289.16;;;20.54;54.62
71666;BME280;59503;53.486;10.196;2022-07-06T10:48:23;102279.69;;;20.55;56.61
71666;BME280;59503;53.486;10.196;2022-07-06T10:50:54;102283.59;;;20.37;55.22
71666;BME280;59503;53.486;10.196;2022-07-06T10:53:25;102285.81;;;20.00;57.19
71666;BME280;59503;53.486;10.196;2022-07-06T10:55:53;102279.66;;;19.52;57.08
71666;BME280;59503;53.486;10.196;2022-07-06T11:01:00;102295.91;;;17.70;60.59
71666;BME280;59503;53.486;10.196;2022-07-06T11:06:11;102303.72;;;16.93;60.68
71666;BME280;59503;53.486;10.196;2022-07-06T11:12:00;102302.88;;;16.29;63.87
71666;BME280;59503;53.486;10.196;2022-07-06T11:16:34;102308.31;;;16.06;68.47
71666;BME280;59503;53.486;10.196;2022-07-06T11:19:11;102311.03;;;15.87;70.70
71666;BME280;59503;53.486;10.196;2022-07-06T11:21:39;102307.31;;;15.45;71.76
71666;BME280;59503;53.486;10.196;2022-07-06T11:24:07;102315.09;;;15.27;73.46
71666;BME280;59503;53.486;10.196;2022-07-06T11:26:34;102313.78;;;15.21;75.48
71666;BME280;59503;53.486;10.196;2022-07-06T11:29:04;102320.88;;;15.07;78.21
71666;BME280;59503;53.486;10.196;2022-07-06T11:31:33;102315.38;;;14.91;79.22
71666;BME280;59503;53.486;10.196;2022-07-06T11:33:59;102299.38;;;14.77;80.53
71666;BME280;59503;53.486;10.196;2022-07-06T11:36:24;102301.69;;;14.91;79.49
71666;BME280;59503;53.486;10.196;2022-07-06T11:38:50;102298.94;;;14.91;nan
71666;BME280;59503;53.486;10.196;2022-07-06T11:41:16;102298.94;;;14.91;82.48
71666;BME280;59503;53.486;10.196;2022-07-06T11:43:44;102297.44;;;15.09;82.45
71666;BME280;59503;53.486;10.196;2022-07-06T11:46:31;102284.69;;;15.32;83.70
71666;BME280;59503;53.486;10.196;2022-07-06T11:48:59;102290.59;;;15.50;80.16
71666;BME280;59503;53.486;10.196;2022-07-06T11:51:26;102293.69;;;15.83;80.76
71666;BME280;59503;53.486;10.196;2022-07-06T11:53:57;102287.13;;;16.06;77.34
71666;BME280;59503;53.486;10.196;2022-07-06T11:56:25;102284.59;;;16.36;77.55
71666;BME280;59503;53.486;10.196;2022-07-06T11:58:59;102287.13;;;16.86;76.38
71666;BME280;59503;53.486;10.196;2022-07-06T12:01:26;102273.31;;;17.58;74.18
71666;BME280;59503;53.486;10.196;2022-07-06T12:03:56;102278.75;;;18.13;70.26
71666;BME280;59503;53.486;10.196;2022-07-06T12:06:23;102281.59;;;18.53;70.18
71666;BME280;59503;53.486;10.196;2022-07-06T12:11:26;102263.56;;;19.64;63.57
71666;BME280;59503;53.486;10.196;2022-07-06T12:13:54;102268.69;;;19.66;60.70
71666;BME280;59503;53.486;10.196;2022-07-06T12:16:20;102258.50;;;19.73;62.61
71666;BME280;59503;53.486;10.196;2022-07-06T12:18:49;102249.00;;;19.71;64.65
71666;BME280;59503;53.486;10.196;2022-07-06T12:21:17;102249.41;;;19.69;60.40
71666;BME280;59503;53.486;10.196;2022-07-06T12:23:46;102248.03;;;20.21;60.52
71666;BME280;59503;53.486;10.196;2022-07-06T12:26:14;102251.28;;;20.79;55.90
71666;BME280;59503;53.486;10.196;2022-07-06T12:28:41;102242.94;;;21.43;55.33
71666;BME280;59503;53.486;10.196;2022-07-06T12:31:08;102224.97;;;21.96;56.18
71666;BME280;59503;53.486;10.196;2022-07-06T12:33:33;102234.84;;;22.66;51.54
71666;BME280;59503;53.486;10.196;2022-07-06T12:36:10;102231.94;;;22.22;53.84
71666;BME280;59503;53.486;10.196;2022-07-06T12:38:47;102244.81;;;22.50;52.58
71666;BME280;59503;53.486;10.196;2022-07-06T12:41:32;102239.66;;;22.55;48.49
71666;BME280;59503;53.486;10.196;2022-07-06T12:44:07;102232.63;;;22.37;49.77
71666;BME280;59503;53.486;10.196;2022-07-06T12:46:35;102226.06;;;22.09;49.00
71666;BME280;59503;53.486;10.196;2022-07-06T12:49:03;102230.34;;;22.21;51.34
71666;BME280;59503;53.486;10.196;2022-07-06T12:54:16;102215.28;;;23.28;45.30
71666;BME280;59503;53.486;10.196;2022-07-06T12:57:04;102230.56;;;23.43;43.35